Kezdőlap
METAR-TAF:

METAR-TAF

Repülőterek :

Csungking, Kína

földrajzi szélesség: 29-31N, földrajzi hosszúság: 106-29E, magasság: 351 m

Jelenlegi meteorológiai megfigyelések

A jelentés 51 perccel ezelõtt készült, 09:00 UTC
Keleti szél 6 kt, északi és kelet-délkeleti között változik
Hőmérséklet 30°C
Páratartalom 52%
Légköri nyomás 1004 hPa
Látótávolság 10 km, vagy több
Szórványos felhőzet 5000 lábon

METAR: ZUCK 230900Z 08003MPS 360V120 9999 SCT050 30/19 Q1004 NOSIG

Idő: 17:51 (09:51 UTC)

Előrejelzés

A jelentés 6 órával és 41 perccel ezelõtt készült, 03:10 UTC
Az előrejelzés 23-én 06 óra UTC és 24-én 06 óra UTC között érvényes
Kelet-északkeleti szél 6 kt
Látótávolság: 6000 m
Kevés felhő 4000 lábon

TAF: ZUCK 230310Z 2306/2406 06003MPS 6000 FEW040 TX30/2309Z TN21/2322Z

Meteorológiai megfigyelések és előrejelzések több, mint 4000 repülőtéren (METAR és TAF jelentéseket).

A térképen piros és sárga pontok jelzik az elérhető meteorológiai állomásokat.

Mozgassa az egeret a pont fölött, hogy megjelenjen az állomás neve.

Azután kattintson az időjárási megfigyelések és előrejelzések megtekintéséhez.

A térkép megváltoztatása: kattintson a fekete keresztel jelölt zöld gombra ráközelítéshez, a vonallal jelölt zöld gombra távolításhoz, vagy a zöld nyilakra a szomszédos térképek eléréséhez.


METAR-TAF: